Milan, New Mexico
Current Conditions -  °F | °C
As of 10:56 PM on Tuesday 21 Oct 2014 (Local Time) from KGNT Reporting Station
Broken Clouds Broken Clouds  
Wind Chill: 48°   Ceiling: 7000
Heat Index: 48°   Visibility: 10mi
Dew Point: 45°   Wind: 0mph
Humidity: 87%   Direction: NA
Pressure: 30.17"   Gusts: NA
Location:  35.17°N, 107.89°W
Report Text: KGNT 220456Z AUTO 00000KT 10SM SCT050 BKN070 BKN100 09/07 A3017 RMK AO2
Loading
Personal Weather Stations






























Interactive Weather Map
Tropical Storm Tracking
New forecast layout! Learn more

10-Day Weather Forecast

Advertisements
Track Severe Weather on mobile